Time;durP1;ratioP1;P1;durP2;ratioP2;P2;SDS_P1;SDS_P2;PMS_P1;PMS_P2;Temp;Humidity;BMP_temperature;BMP_pressure;BME280_temperature;BME280_humidity;BME280_pressure;Samples;Min_cycle;Max_cycle;Signal;HPM_P1;HPM_P2
2022/02/24 00:00:19;;;;;;;22.73;16.95;;;;;;;11.04;68.00;101552.31;5034733;27;102789;-50
2022/02/24 00:02:47;;;;;;;22.90;16.77;;;;;;;11.03;67.46;101556.09;5026265;27;103729;-51
2022/02/24 00:05:13;;;;;;;23.85;16.95;;;;;;;11.04;67.46;101557.78;5024624;27;104010;-51
2022/02/24 00:07:40;;;;;;;24.75;17.10;;;;;;;11.03;68.04;101559.69;5015634;27;103020;-51
2022/02/24 00:10:08;;;;;;;23.73;16.98;;;;;;;11.02;67.75;101559.91;5040793;27;102402;-51
2022/02/24 00:12:44;;;;;;;23.13;16.13;;;;;;;11.02;67.86;101559.91;5045023;27;102300;-51
2022/02/24 00:15:11;;;;;;;22.10;16.20;;;;;;;11.02;67.77;101559.91;5022557;27;102636;-51
2022/02/24 00:17:40;;;;;;;22.60;15.57;;;;;;;11.03;67.46;101556.09;5025328;27;104100;-56
2022/02/24 00:20:08;;;;;;;22.73;15.48;;;;;;;11.01;67.30;101561.81;5025220;27;102748;-51
2022/02/24 00:22:36;;;;;;;20.45;15.88;;;;;;;11.02;67.10;101559.91;5023553;27;102555;-50
2022/02/24 00:25:03;;;;;;;21.55;15.60;;;;;;;11.02;67.91;101559.91;5025009;27;103130;-56
2022/02/24 00:27:30;;;;;;;19.90;15.20;;;;;;;11.00;67.81;101557.44;5042528;27;104155;-51
2022/02/24 00:41:10;;;;;;;21.83;14.63;;;;;;;10.99;67.75;101554.97;5029659;27;103157;-52
2022/02/24 00:43:37;;;;;;;18.15;14.40;;;;;;;10.99;67.58;101557.69;5041493;27;102004;-50
2022/02/24 00:46:03;;;;;;;20.85;14.70;;;;;;;10.99;67.50;101560.41;5043090;27;102925;-50
2022/02/24 00:48:30;;;;;;;19.48;14.55;;;;;;;10.98;67.61;101561.50;5044298;27;104384;-51
2022/02/24 00:50:56;;;;;;;22.48;15.27;;;;;;;10.98;67.52;101570.50;5029397;27;104790;-50
2022/02/24 00:53:22;;;;;;;18.40;13.95;;;;;;;10.98;67.95;101565.03;5036654;27;102174;-51
2022/02/24 00:55:49;;;;;;;18.80;14.23;;;;;;;10.98;67.43;101553.31;5040659;27;102648;-50
2022/02/24 00:58:16;;;;;;;18.50;13.82;;;;;;;10.97;67.57;101562.59;5053467;27;102737;-50
2022/02/24 01:00:43;;;;;;;19.73;13.98;;;;;;;10.97;67.83;101557.13;5027872;27;106833;-50
2022/02/24 01:03:09;;;;;;;21.50;13.63;;;;;;;10.98;67.53;101553.31;5026233;27;104077;-51
2022/02/24 01:05:36;;;;;;;21.48;14.95;;;;;;;10.99;68.00;101560.41;5038292;27;102392;-50
2022/02/24 01:08:10;;;;;;;17.95;13.68;;;;;;;10.97;67.36;101551.69;5046058;27;102598;-51
2022/02/24 01:10:36;;;;;;;21.05;13.20;;;;;;;10.96;67.89;101561.75;5024541;27;102937;-50
2022/02/24 01:13:02;;;;;;;19.85;13.50;;;;;;;10.96;67.25;101560.91;5046952;27;102737;-50
2022/02/24 01:15:30;;;;;;;19.33;13.20;;;;;;;10.97;67.66;101557.13;5028082;27;102402;-51
2022/02/24 01:17:57;;;;;;;18.17;13.20;;;;;;;10.96;67.76;101556.31;5026753;27;102156;-51
2022/02/24 01:20:23;;;;;;;18.67;13.65;;;;;;;10.97;67.42;101562.59;5023355;27;104101;-50
2022/02/24 01:22:50;;;;;;;18.42;13.45;;;;;;;10.96;67.38;101566.34;5023529;27;104534;-50
2022/02/24 01:25:19;;;;;;;19.13;13.48;;;;;;;10.96;67.87;101566.34;5020399;27;103781;-51
2022/02/24 01:27:46;;;;;;;18.67;13.05;;;;;;;10.96;67.52;101569.09;5026960;27;102611;-51
2022/02/24 01:30:13;;;;;;;17.05;13.32;;;;;;;10.96;67.29;101572.66;5032176;27;104137;-51
2022/02/24 01:32:41;;;;;;;18.45;13.75;;;;;;;10.96;67.23;101577.25;5041987;27;102676;-50
2022/02/24 01:35:08;;;;;;;16.35;12.63;;;;;;;10.96;67.32;101572.66;5035372;27;102871;-51
2022/02/24 01:37:35;;;;;;;16.35;12.50;;;;;;;10.97;67.44;101573.47;5048083;27;102306;-51
2022/02/24 01:40:02;;;;;;;17.50;13.07;;;;;;;10.96;67.63;101572.66;5044781;27;104229;-51
2022/02/24 01:42:29;;;;;;;17.77;13.00;;;;;;;10.97;67.29;101568.03;5041641;27;102355;-51
2022/02/24 01:44:55;;;;;;;17.65;13.55;;;;;;;10.96;67.80;101569.94;5042239;27;105621;-51
2022/02/24 01:47:21;;;;;;;19.52;12.88;;;;;;;10.96;67.84;101564.50;5026507;27;102532;-50
2022/02/24 01:49:49;;;;;;;18.75;13.07;;;;;;;10.96;67.73;101566.34;5018039;27;103969;-51
2022/02/24 01:52:15;;;;;;;15.98;12.15;;;;;;;10.95;67.52;101570.16;5024061;27;102496;-51
2022/02/24 01:54:48;;;;;;;16.33;12.52;;;;;;;10.94;67.47;101572.06;5019985;27;104149;-51
2022/02/24 01:57:14;;;;;;;17.52;11.85;;;;;;;10.95;67.36;101572.91;5029768;27;102258;-51
2022/02/24 01:59:40;;;;;;;16.23;11.77;;;;;;;10.95;67.81;101581.06;5019899;27;103424;-50
2022/02/24 02:02:07;;;;;;;16.45;12.10;;;;;;;10.95;67.26;101586.50;5019788;27;102302;-50
2022/02/24 02:04:36;;;;;;;17.55;12.07;;;;;;;10.94;67.30;101590.31;5018192;27;102713;-50
2022/02/24 02:07:04;;;;;;;16.75;11.70;;;;;;;10.95;67.25;101597.41;5020353;27;102613;-51
2022/02/24 02:09:32;;;;;;;15.82;12.07;;;;;;;10.96;67.83;101604.50;5017758;27;105080;-51
2022/02/24 02:11:58;;;;;;;16.02;11.30;;;;;;;10.94;67.76;101604.75;5016173;27;102334;-50
2022/02/24 02:14:24;;;;;;;15.77;12.15;;;;;;;10.95;67.15;101614.56;5028017;27;102671;-50
2022/02/24 02:16:51;;;;;;;16.23;12.00;;;;;;;10.95;67.75;101613.75;5044468;27;103650;-51
2022/02/24 02:19:19;;;;;;;15.18;11.40;;;;;;;10.95;67.27;101616.47;5035876;27;104039;-50
2022/02/24 02:21:47;;;;;;;15.45;11.88;;;;;;;10.95;67.24;101619.19;5034582;27;102589;-51
2022/02/24 02:24:14;;;;;;;16.47;11.83;;;;;;;10.94;67.48;101617.56;5033763;27;102225;-51
2022/02/24 02:26:41;;;;;;;16.70;12.15;;;;;;;10.94;67.62;101621.09;5020462;27;102499;-50
2022/02/24 02:29:10;;;;;;;14.02;10.93;;;;;;;10.93;67.32;101626.81;5026880;27;104207;-51
2022/02/24 02:31:36;;;;;;;15.85;11.27;;;;;;;10.95;67.75;101635.53;5036545;27;102290;-51
2022/02/24 02:34:05;;;;;;;15.60;11.65;;;;;;;10.94;67.78;101625.72;5029314;27;102519;-51
2022/02/24 02:36:31;;;;;;;15.25;10.85;;;;;;;10.94;67.43;101628.44;5039499;27;102705;-51
2022/02/24 02:38:59;;;;;;;15.23;10.85;;;;;;;10.93;67.33;101632.25;5032754;27;103930;-51
2022/02/24 02:41:28;;;;;;;15.23;11.77;;;;;;;10.94;67.49;101633.91;5029206;27;102045;-50
2022/02/24 02:43:54;;;;;;;15.60;11.27;;;;;;;10.93;67.39;101632.25;5028689;27;102793;-51
2022/02/24 02:46:20;;;;;;;13.40;10.43;;;;;;;10.93;67.52;101632.25;5031747;27;102668;-51
2022/02/24 02:48:46;;;;;;;12.68;10.23;;;;;;;10.94;67.18;101633.91;5031114;27;104000;-50
2022/02/24 02:51:13;;;;;;;16.80;11.05;;;;;;;10.93;67.51;101638.53;5030066;27;103481;-50
2022/02/24 02:53:39;;;;;;;13.30;10.85;;;;;;;10.93;67.58;101633.06;5032241;27;102492;-51
2022/02/24 02:56:07;;;;;;;14.18;10.15;;;;;;;10.93;67.57;101626.81;5038525;27;102695;-51
2022/02/24 02:58:33;;;;;;;14.95;10.65;;;;;;;10.92;67.83;101642.28;5038669;27;103866;-51
2022/02/24 03:00:59;;;;;;;13.68;10.77;;;;;;;10.93;67.43;101634.97;5041716;27;104751;-51
2022/02/24 03:03:25;;;;;;;12.05;10.40;;;;;;;10.92;67.63;101639.56;5036743;27;102710;-51
2022/02/24 03:05:52;;;;;;;15.90;11.00;;;;;;;10.92;67.14;101636.84;5046451;27;102735;-50
2022/02/24 03:08:19;;;;;;;16.92;10.95;;;;;;;10.94;67.53;101642.06;5042615;27;104043;-51
2022/02/24 03:10:46;;;;;;;14.38;10.05;;;;;;;10.92;67.73;101641.47;5043495;27;102814;-51
2022/02/24 03:13:14;;;;;;;13.35;9.98;;;;;;;10.92;67.30;101642.28;5038441;27;102679;-50
2022/02/24 03:15:41;;;;;;;12.05;9.70;;;;;;;10.93;67.76;101643.16;5040420;27;102307;-51
2022/02/24 03:18:07;;;;;;;13.57;10.15;;;;;;;10.92;67.19;101638.75;5032470;27;103877;-51
2022/02/24 03:20:34;;;;;;;14.43;10.20;;;;;;;10.92;67.47;101641.47;5034112;27;104444;-51
2022/02/24 03:23:02;;;;;;;15.07;10.40;;;;;;;10.93;67.01;101643.16;5052618;27;102631;-51
2022/02/24 03:25:29;;;;;;;13.48;9.90;;;;;;;10.93;67.45;101637.69;5035899;27;102659;-50
2022/02/24 03:27:56;;;;;;;13.80;10.05;;;;;;;10.93;67.23;101643.16;5038875;27;103834;-51
2022/02/24 03:30:24;;;;;;;14.25;10.13;;;;;;;10.93;67.68;101648.59;5040923;27;102711;-50
2022/02/24 03:32:51;;;;;;;13.27;9.57;;;;;;;10.93;67.72;101643.97;5034485;27;102216;-51
2022/02/24 03:35:17;;;;;;;13.15;10.15;;;;;;;10.92;67.37;101642.28;5031078;27;102559;-50
2022/02/24 03:37:44;;;;;;;12.32;9.82;;;;;;;10.93;67.70;101645.88;5040613;27;103955;-51
2022/02/24 03:40:11;;;;;;;12.10;8.95;;;;;;;10.93;67.66;101645.88;5038707;27;102480;-51
2022/02/24 03:42:38;;;;;;;13.23;10.85;;;;;;;10.92;67.71;101644.19;5036932;27;102801;-50
2022/02/24 03:45:06;;;;;;;11.95;9.50;;;;;;;10.93;67.26;101643.97;5041497;27;102659;-50
2022/02/24 03:47:33;;;;;;;13.10;9.68;;;;;;;10.92;67.73;101652.38;5037711;27;103941;-50
2022/02/24 03:50:00;;;;;;;12.32;9.63;;;;;;;10.93;67.30;101654.88;5038136;27;102375;-50
2022/02/24 03:52:26;;;;;;;11.35;8.98;;;;;;;10.92;67.75;101641.47;5039711;27;102246;-51
2022/02/24 03:54:52;;;;;;;12.93;9.52;;;;;;;10.92;67.14;101653.19;5042722;27;102369;-50
2022/02/24 03:57:19;;;;;;;14.05;9.88;;;;;;;10.92;67.72;101658.63;5036630;27;103903;-51
2022/02/24 03:59:45;;;;;;;12.73;10.07;;;;;;;10.92;67.81;101664.09;5045234;27;102419;-51
2022/02/24 04:02:12;;;;;;;11.68;9.20;;;;;;;10.93;67.57;101664.94;5044189;27;102673;-50
2022/02/24 04:04:41;;;;;;;11.80;10.15;;;;;;;10.91;67.44;101667.91;5039688;27;102902;-51
2022/02/24 04:07:08;;;;;;;11.27;9.07;;;;;;;10.92;67.79;101664.09;5023669;27;104114;-51
2022/02/24 04:09:35;;;;;;;10.68;8.60;;;;;;;10.92;67.68;101661.38;5024550;27;103839;-51
2022/02/24 04:12:02;;;;;;;11.68;9.15;;;;;;;10.92;67.78;101664.09;5019312;27;103365;-51
2022/02/24 04:14:29;;;;;;;12.63;10.00;;;;;;;10.91;67.71;101678.78;5037467;27;102604;-51
2022/02/24 04:16:56;;;;;;;14.05;9.57;;;;;;;10.92;67.35;101687.78;5042271;27;103889;-50
2022/02/24 04:19:24;;;;;;;13.25;9.15;;;;;;;10.92;67.73;101690.50;5021705;27;102087;-50
2022/02/24 04:21:52;;;;;;;14.47;10.23;;;;;;;10.92;67.47;101693.22;5036783;27;102558;-52
2022/02/24 04:24:19;;;;;;;21.00;13.60;;;;;;;10.91;67.25;101691.59;5020768;27;104127;-51
2022/02/24 04:26:45;;;;;;;20.95;14.30;;;;;;;10.91;67.77;101688.88;5023217;27;103984;-51
2022/02/24 04:29:12;;;;;;;20.20;14.32;;;;;;;10.90;67.64;101689.94;5023824;27;103621;-50
2022/02/24 04:31:38;;;;;;;17.52;13.73;;;;;;;10.91;67.13;101694.31;5017731;27;102599;-50
2022/02/24 04:34:04;;;;;;;18.33;12.95;;;;;;;10.90;67.88;101698.13;5033381;27;102650;-50
2022/02/24 04:36:31;;;;;;;19.02;13.60;;;;;;;10.91;67.44;101711.47;5019198;27;104067;-50
2022/02/24 04:38:59;;;;;;;20.58;13.88;;;;;;;10.91;67.17;101710.66;5019008;27;102634;-50
2022/02/24 04:41:25;;;;;;;21.85;13.57;;;;;;;10.91;67.28;101721.53;5020685;27;102469;-50
2022/02/24 04:43:51;;;;;;;19.02;14.00;;;;;;;10.91;67.42;101716.09;5020615;27;102898;-50
2022/02/24 04:46:18;;;;;;;20.50;14.68;;;;;;;10.91;67.30;101721.53;5014260;27;104261;-50
2022/02/24 04:48:44;;;;;;;20.80;14.15;;;;;;;10.90;67.68;101728.06;5024151;27;102635;-50
2022/02/24 04:51:10;;;;;;;16.90;12.43;;;;;;;10.91;67.45;101732.44;5023897;27;102964;-50
2022/02/24 04:53:37;;;;;;;16.05;12.48;;;;;;;10.91;67.15;101735.16;5018506;27;102721;-50
2022/02/24 04:56:06;;;;;;;16.25;13.02;;;;;;;10.91;67.66;101737.88;5018601;27;103934;-50
2022/02/24 04:58:33;;;;;;;20.08;13.23;;;;;;;10.91;67.54;101737.88;5019200;27;102902;-50
2022/02/24 05:00:59;;;;;;;16.92;12.52;;;;;;;10.90;66.86;101736.25;5016717;27;103173;-50
2022/02/24 05:03:26;;;;;;;17.95;12.55;;;;;;;10.85;67.07;101733.41;5018695;27;103765;-50
2022/02/24 05:05:52;;;;;;;26.02;13.23;;;;;;;10.87;67.14;101747.63;5017027;27;103930;-51
2022/02/24 05:08:18;;;;;;;16.67;12.07;;;;;;;10.86;67.07;101746.81;5020614;27;102568;-50
2022/02/24 05:10:45;;;;;;;22.42;12.70;;;;;;;10.88;67.50;101749.25;5029778;27;102167;-50
2022/02/24 05:13:12;;;;;;;23.63;13.85;;;;;;;10.88;67.50;101752.00;5019971;27;102783;-50
2022/02/24 05:15:41;;;;;;;22.33;12.80;;;;;;;10.87;67.31;101755.78;5017587;27;103947;-50
2022/02/24 05:18:07;;;;;;;18.73;12.07;;;;;;;10.88;67.58;101763.69;5021684;27;102467;-50
2022/02/24 05:20:35;;;;;;;17.80;11.93;;;;;;;10.87;67.45;101763.97;5030660;27;102338;-50
2022/02/24 05:23:01;;;;;;;19.85;12.15;;;;;;;10.88;66.89;101768.34;5020012;27;102668;-50
2022/02/24 05:25:30;;;;;;;18.95;12.35;;;;;;;10.88;67.16;101765.59;5019304;27;103978;-50
2022/02/24 05:27:56;;;;;;;20.77;12.90;;;;;;;10.88;67.37;101765.59;5036519;27;102268;-51
2022/02/24 05:30:24;;;;;;;16.33;11.35;;;;;;;10.87;67.43;101767.50;5039022;27;102710;-50
2022/02/24 05:32:50;;;;;;;17.27;12.13;;;;;;;10.88;67.64;101776.50;5016893;27;102669;-50
2022/02/24 05:35:17;;;;;;;17.98;12.00;;;;;;;10.88;67.52;101776.50;5021733;27;104338;-50
2022/02/24 05:37:43;;;;;;;18.10;12.48;;;;;;;10.88;67.52;101779.22;5034927;27;102446;-50
2022/02/24 05:40:09;;;;;;;16.10;10.57;;;;;;;10.88;67.42;101784.66;5048255;27;102655;-50
2022/02/24 05:42:36;;;;;;;16.48;11.52;;;;;;;10.88;67.33;101776.50;5048846;27;102471;-50
2022/02/24 05:45:04;;;;;;;18.45;12.00;;;;;;;10.88;67.34;101781.94;5036295;27;103886;-50
2022/02/24 05:47:32;;;;;;;16.95;11.65;;;;;;;10.88;67.70;101785.50;5023588;27;103329;-50
2022/02/24 05:49:58;;;;;;;18.30;12.30;;;;;;;10.88;67.35;101779.22;5027227;27;102427;-50
2022/02/24 05:52:24;;;;;;;15.05;11.45;;;;;;;10.88;67.21;101787.41;5027517;27;102547;-50
2022/02/24 05:54:51;;;;;;;16.30;11.48;;;;;;;10.87;67.13;101786.56;5047710;27;103706;-50
2022/02/24 05:57:17;;;;;;;17.33;11.05;;;;;;;10.87;67.27;101789.28;5040324;27;102235;-50
2022/02/24 05:59:43;;;;;;;17.35;11.75;;;;;;;10.89;66.97;101791.75;5043243;27;102469;-50
2022/02/24 06:02:10;;;;;;;16.35;11.15;;;;;;;10.87;67.71;101797.47;5038641;27;102540;-50
2022/02/24 06:04:38;;;;;;;18.33;11.40;;;;;;;10.87;67.11;101805.63;5036054;27;104063;-50
2022/02/24 06:07:04;;;;;;;17.30;11.85;;;;;;;10.86;67.59;101800.44;5027345;27;102561;-50
2022/02/24 06:09:31;;;;;;;15.18;11.05;;;;;;;10.87;67.38;101805.63;5033364;27;102624;-50
2022/02/24 06:11:57;;;;;;;16.13;11.32;;;;;;;10.87;67.26;101811.09;5035756;27;102775;-50
2022/02/24 06:14:24;;;;;;;15.82;11.05;;;;;;;10.87;67.31;101812.97;5025921;27;103981;-50
2022/02/24 06:16:50;;;;;;;15.15;10.77;;;;;;;10.87;67.12;101818.44;5027545;27;102617;-50
2022/02/24 06:19:16;;;;;;;14.60;10.48;;;;;;;10.87;67.42;101818.44;5047040;27;102173;-50
2022/02/24 06:21:44;;;;;;;15.68;10.18;;;;;;;10.86;67.02;101814.88;5058212;27;102686;-50
2022/02/24 06:24:10;;;;;;;15.73;10.45;;;;;;;10.87;67.46;101812.97;5046347;27;103920;-50
2022/02/24 06:26:36;;;;;;;15.15;10.80;;;;;;;10.86;67.56;101827.69;5057757;27;102447;-50
2022/02/24 06:29:03;;;;;;;13.05;10.10;;;;;;;10.87;67.51;101829.31;5048311;27;102724;-50
2022/02/24 06:31:34;;;;;;;15.93;10.48;;;;;;;10.87;67.10;101829.31;5047332;27;102129;-50
2022/02/24 06:34:01;;;;;;;14.60;10.13;;;;;;;10.87;67.23;101818.44;5037569;27;104055;-50
2022/02/24 06:36:28;;;;;;;13.98;10.10;;;;;;;10.87;67.58;101823.88;5037369;27;101934;-50
2022/02/24 06:38:57;;;;;;;13.52;9.68;;;;;;;10.85;67.25;101831.47;5032457;28;102565;-50
2022/02/24 06:41:23;;;;;;;14.88;10.27;;;;;;;10.86;67.51;101828.50;5056642;27;102605;-51
2022/02/24 06:43:50;;;;;;;17.08;9.90;;;;;;;10.86;67.76;101838.56;5048664;27;105008;-50
2022/02/24 06:46:18;;;;;;;17.00;10.02;;;;;;;10.86;67.65;101841.28;5051634;27;102402;-50
2022/02/24 06:48:44;;;;;;;15.82;9.73;;;;;;;10.85;67.77;101843.16;5058817;27;102705;-50
2022/02/24 06:51:11;;;;;;;14.45;10.55;;;;;;;10.86;67.74;101849.47;5048318;27;102703;-51
2022/02/24 06:53:37;;;;;;;16.08;10.32;;;;;;;10.86;67.11;101844.03;5048626;27;103719;-50
2022/02/24 06:56:05;;;;;;;15.93;10.02;;;;;;;10.86;67.45;101857.63;5032326;27;102549;-50
2022/02/24 06:58:31;;;;;;;12.10;9.40;;;;;;;10.86;67.27;101854.91;5019827;27;102190;-51
2022/02/24 07:00:58;;;;;;;11.85;9.43;;;;;;;10.83;67.11;101857.03;5039268;27;102866;-50
2022/02/24 07:03:25;;;;;;;16.98;10.50;;;;;;;10.84;67.21;101857.88;5028522;27;104058;-49
2022/02/24 07:05:51;;;;;;;14.13;10.63;;;;;;;10.85;67.50;101861.41;5035697;27;102119;-51
2022/02/24 07:08:18;;;;;;;15.15;9.68;;;;;;;10.83;67.36;101858.94;5031389;27;102316;-50
2022/02/24 07:10:45;;;;;;;13.10;9.48;;;;;;;10.83;66.81;101862.50;5025404;27;102670;-50
2022/02/24 07:13:13;;;;;;;12.77;9.75;;;;;;;10.83;67.22;101856.22;5032280;27;103752;-50
2022/02/24 07:15:39;;;;;;;12.63;9.30;;;;;;;10.82;66.94;101858.13;5024451;27;102475;-50
2022/02/24 07:18:05;;;;;;;12.43;9.07;;;;;;;10.81;66.87;101864.63;5028257;27;102451;-50
2022/02/24 07:20:32;;;;;;;11.32;9.05;;;;;;;10.81;67.35;101869.25;5036318;27;102617;-51
2022/02/24 07:22:58;;;;;;;12.00;9.35;;;;;;;10.81;67.02;101872.78;5033330;27;104037;-51
2022/02/24 07:25:24;;;;;;;11.95;9.20;;;;;;;10.82;67.45;101873.63;5018766;27;102578;-50
2022/02/24 07:27:51;;;;;;;12.90;9.35;;;;;;;10.81;66.96;101880.97;5037857;27;102325;-50
2022/02/24 07:30:18;;;;;;;13.43;9.23;;;;;;;10.80;67.41;101868.41;5048111;27;102682;-50
2022/02/24 07:32:45;;;;;;;14.35;9.90;;;;;;;10.81;67.61;101880.97;5036896;27;103880;-50
2022/02/24 07:35:11;;;;;;;11.55;9.32;;;;;;;10.82;66.85;101876.38;5034759;27;102514;-51
2022/02/24 07:37:38;;;;;;;11.70;9.00;;;;;;;10.80;67.11;101879.31;5051613;27;102149;-51
2022/02/24 07:40:06;;;;;;;14.55;9.77;;;;;;;10.81;67.07;101875.50;5034072;27;102224;-50
2022/02/24 07:42:34;;;;;;;13.30;9.13;;;;;;;10.79;67.41;101877.66;5058813;27;103914;-50
2022/02/24 07:45:01;;;;;;;12.23;9.48;;;;;;;10.80;67.28;101879.31;5050387;27;102944;-50
2022/02/24 07:47:29;;;;;;;11.55;9.30;;;;;;;10.80;66.76;101873.88;5031615;27;102542;-50
2022/02/24 07:49:56;;;;;;;13.53;9.73;;;;;;;10.80;67.11;101873.88;5030722;27;102271;-50
2022/02/24 07:52:25;;;;;;;10.32;8.60;;;;;;;10.80;67.54;101868.41;5028686;27;104000;-50
2022/02/24 07:54:51;;;;;;;12.38;9.48;;;;;;;10.80;67.21;101871.16;5032276;27;102101;-50
2022/02/24 07:57:17;;;;;;;12.52;9.40;;;;;;;10.81;67.02;101880.13;5030820;27;102214;-50
2022/02/24 07:59:44;;;;;;;11.15;8.70;;;;;;;10.80;66.99;101873.88;5016092;27;102431;-50
2022/02/24 08:02:10;;;;;;;11.90;9.68;;;;;;;10.79;67.22;101877.66;5029408;27;103908;-50
2022/02/24 08:04:38;;;;;;;10.90;9.07;;;;;;;10.80;67.09;101884.75;5051378;27;102067;-50
2022/02/24 08:07:04;;;;;;;12.18;9.32;;;;;;;10.81;67.12;101886.41;5043657;27;102532;-50
2022/02/24 08:09:31;;;;;;;12.10;9.30;;;;;;;10.80;67.12;101879.31;5049965;27;102417;-50
2022/02/24 08:14:42;;;;;;;12.80;9.35;;;;;;;10.80;67.37;101873.03;5037088;27;102541;-50
2022/02/24 08:17:08;;;;;;;11.10;8.98;;;;;;;10.80;67.07;101871.16;5038346;27;102607;-50
2022/02/24 08:19:35;;;;;;;11.50;9.18;;;;;;;10.80;67.04;101879.31;5059639;27;102205;-50
2022/02/24 08:22:03;;;;;;;13.82;9.35;;;;;;;10.80;67.34;101878.50;5050587;27;103887;-50
2022/02/24 08:24:32;;;;;;;12.57;9.33;;;;;;;10.80;67.56;101884.75;5042763;27;102436;-50
2022/02/24 08:26:58;;;;;;;11.73;9.40;;;;;;;10.81;67.14;101877.41;5031166;27;102384;-50
2022/02/24 08:29:24;;;;;;;12.23;8.75;;;;;;;10.80;66.90;101879.31;5032065;27;102805;-50
2022/02/24 08:31:50;;;;;;;12.30;8.82;;;;;;;10.80;67.60;101867.59;5038634;27;103876;-50
2022/02/24 08:34:17;;;;;;;11.10;8.82;;;;;;;10.81;67.52;101883.69;5042060;27;102413;-50
2022/02/24 08:36:44;;;;;;;12.20;9.60;;;;;;;10.80;67.19;101876.59;5039005;27;102614;-50
2022/02/24 08:39:11;;;;;;;10.23;9.00;;;;;;;10.81;66.95;101889.13;5047210;27;102803;-50
2022/02/24 08:41:40;;;;;;;12.02;9.15;;;;;;;10.82;66.76;101893.53;5039910;27;103851;-49
2022/02/24 08:44:07;;;;;;;10.35;8.60;;;;;;;10.80;67.53;101884.75;5040343;27;102360;-50
2022/02/24 08:46:33;;;;;;;11.20;8.48;;;;;;;10.81;67.42;101886.41;5050169;27;102147;-51
2022/02/24 08:48:59;;;;;;;12.15;9.25;;;;;;;10.81;67.50;101880.13;5051583;27;102630;-50
2022/02/24 08:51:26;;;;;;;11.75;9.18;;;;;;;10.82;67.09;101879.09;5044686;27;104046;-50
2022/02/24 08:53:52;;;;;;;11.75;9.18;;;;;;;10.81;66.99;101885.59;5050990;27;102369;-51
2022/02/24 08:56:20;;;;;;;10.50;8.77;;;;;;;10.81;67.47;101880.97;5060409;27;102689;-50
2022/02/24 08:58:46;;;;;;;10.85;8.18;;;;;;;10.82;67.33;101882.63;5052434;27;102224;-50
2022/02/24 09:01:13;;;;;;;12.55;9.15;;;;;;;10.82;67.63;101877.19;5049246;27;103653;-50
2022/02/24 09:03:39;;;;;;;12.98;9.60;;;;;;;10.82;67.11;101881.81;5040120;27;105896;-50
2022/02/24 09:06:05;;;;;;;10.15;8.65;;;;;;;10.84;66.88;101882.38;5030163;27;102138;-50
2022/02/24 09:08:32;;;;;;;11.73;8.57;;;;;;;10.85;66.83;101877.75;5030771;27;102159;-50
2022/02/24 09:10:58;;;;;;;13.18;9.02;;;;;;;10.83;67.16;101878.84;5042357;27;103925;-50
2022/02/24 09:13:26;;;;;;;12.93;8.75;;;;;;;10.84;67.33;101879.66;5036796;27;102778;-50
2022/02/24 09:15:52;;;;;;;10.77;8.40;;;;;;;10.85;67.07;101875.03;5043072;27;102339;-50
2022/02/24 09:18:19;;;;;;;10.60;8.77;;;;;;;10.85;67.56;101869.59;5037635;27;102402;-50
2022/02/24 09:20:45;;;;;;;11.13;9.43;;;;;;;10.86;67.03;101876.69;5029031;27;104036;-50
2022/02/24 09:23:12;;;;;;;10.68;9.07;;;;;;;10.88;66.65;101874.53;5030003;27;102428;-50
2022/02/24 09:25:39;;;;;;;9.05;7.93;;;;;;;10.88;67.28;101877.25;5042602;27;102379;-50
2022/02/24 09:28:05;;;;;;;10.05;8.63;;;;;;;10.87;66.79;101872.91;5036547;27;102695;-50
2022/02/24 09:30:33;;;;;;;12.13;8.95;;;;;;;10.88;66.84;101880.00;5028992;27;103719;-50
2022/02/24 09:33:00;;;;;;;11.30;9.48;;;;;;;10.89;67.38;101884.34;5044005;27;102556;-50
2022/02/24 09:35:26;;;;;;;11.38;8.73;;;;;;;10.88;67.37;101874.53;5036603;27;102633;-50
2022/02/24 09:37:52;;;;;;;9.88;8.27;;;;;;;10.89;67.42;101876.19;5046476;27;102769;-50
2022/02/24 09:40:19;;;;;;;13.65;9.52;;;;;;;10.89;67.40;101885.22;5057815;27;103917;-50
2022/02/24 09:42:46;;;;;;;10.40;9.00;;;;;;;10.88;67.14;101878.09;5049655;27;102554;-50
2022/02/24 09:45:13;;;;;;;10.82;8.85;;;;;;;10.90;67.25;101892.31;5035006;27;102579;-50
2022/02/24 09:47:40;;;;;;;9.80;8.63;;;;;;;10.89;66.86;101881.63;5049950;27;102135;-50
2022/02/24 09:50:08;;;;;;;9.32;8.43;;;;;;;10.89;67.00;101887.06;5054968;27;103896;-50
2022/02/24 09:52:35;;;;;;;11.40;8.70;;;;;;;10.89;67.31;101881.63;5034047;27;102371;-50
2022/02/24 09:55:01;;;;;;;10.23;8.35;;;;;;;10.89;67.02;101876.19;5028352;27;102287;-50
2022/02/24 09:57:28;;;;;;;11.45;8.73;;;;;;;10.89;66.76;101885.22;5034569;27;102279;-50
2022/02/24 09:59:54;;;;;;;10.77;9.10;;;;;;;10.90;67.11;101875.13;5029775;27;103749;-50
2022/02/24 10:02:21;;;;;;;12.18;8.95;;;;;;;10.89;66.74;101868.88;5033082;27;102463;-50
2022/02/24 10:05:10;;;;;;;9.93;8.82;;;;;;;10.89;66.95;101873.47;5031908;27;102063;-50
2022/02/24 10:07:38;;;;;;;7.80;6.72;;;;;;;10.89;66.91;101868.88;5034340;27;102787;-50
2022/02/24 10:10:20;;;;;;;;;;;;;;;10.89;67.08;101857.97;5050079;27;104280;-50
2022/02/24 10:12:58;;;;;;;10.57;9.25;;;;;;;10.90;67.36;101858.78;5047588;27;102294;-50
2022/02/24 10:15:25;;;;;;;11.27;9.13;;;;;;;10.90;66.91;101862.34;5049433;27;102156;-50
2022/02/24 10:18:04;;;;;;;12.98;9.35;;;;;;;10.90;66.97;101861.53;5034721;27;102405;-50
2022/02/24 10:20:39;;;;;;;11.18;9.07;;;;;;;10.90;66.85;101850.63;5047641;27;104205;-50
2022/02/24 10:23:06;;;;;;;9.45;8.45;;;;;;;10.90;66.75;101856.91;5052144;27;102426;-50
2022/02/24 10:25:44;;;;;;;10.93;8.82;;;;;;;10.90;67.20;101851.44;5066222;27;103087;-50
2022/02/24 10:28:33;;;;;;;12.05;8.60;;;;;;;10.90;66.77;101850.63;5051229;27;103632;-50
2022/02/24 10:31:05;;;;;;;10.65;8.57;;;;;;;10.90;66.60;101839.72;5035825;27;103607;-51
2022/02/24 10:33:32;;;;;;;11.77;8.82;;;;;;;10.90;66.84;101850.63;5044599;27;102154;-50
2022/02/24 10:36:10;;;;;;;9.70;8.73;;;;;;;10.90;66.88;101850.63;5049040;27;102590;-50
2022/02/24 10:38:37;;;;;;;10.75;8.77;;;;;;;10.91;66.94;101850.38;5051056;27;102696;-50
2022/02/24 10:41:04;;;;;;;10.38;8.50;;;;;;;10.91;66.84;101849.53;5060448;27;103633;-50
2022/02/24 10:43:32;;;;;;;11.98;9.25;;;;;;;10.90;67.06;101851.44;5029507;27;102420;-50
2022/02/24 10:46:00;;;;;;;10.02;8.50;;;;;;;10.90;67.10;101843.28;5028409;27;102489;-50
2022/02/24 10:48:27;;;;;;;9.82;8.60;;;;;;;10.90;66.75;101843.28;5035671;27;102292;-50
2022/02/24 10:50:55;;;;;;;10.38;8.13;;;;;;;10.92;67.04;101845.75;5035135;27;103960;-50
2022/02/24 10:53:26;;;;;;;9.73;8.50;;;;;;;10.91;66.81;101825.03;5028321;27;102525;-50
2022/02/24 10:55:59;;;;;;;11.48;8.55;;;;;;;10.89;66.85;101838.06;5033297;27;102206;-51
2022/02/24 10:58:27;;;;;;;10.45;8.38;;;;;;;10.90;66.68;101835.09;5050385;27;102429;-51
2022/02/24 11:01:08;;;;;;;8.93;7.65;;;;;;;10.91;67.01;101842.19;5047825;27;104146;-50
2022/02/24 11:03:36;;;;;;;11.02;8.05;;;;;;;10.91;66.61;101835.94;5059729;27;102371;-50
2022/02/24 11:06:04;;;;;;;9.55;8.05;;;;;;;10.91;66.82;101830.47;5054303;27;102444;-50
2022/02/24 11:08:34;;;;;;;8.68;7.78;;;;;;;10.92;67.02;101837.56;5013858;28;102485;-50
2022/02/24 11:11:00;;;;;;;9.57;8.02;;;;;;;10.91;66.69;101830.47;5034284;27;104620;-50
2022/02/24 11:13:30;;;;;;;9.07;8.10;;;;;;;10.91;66.83;101827.75;5045087;27;102197;-50
2022/02/24 11:15:58;;;;;;;9.65;7.55;;;;;;;10.91;66.63;101831.31;5060539;27;102642;-50
2022/02/24 11:18:30;;;;;;;10.43;8.35;;;;;;;10.91;66.80;101830.47;5050542;27;102125;-50
2022/02/24 11:20:57;;;;;;;10.43;8.23;;;;;;;10.91;66.60;101830.47;5048675;27;103802;-50